createdAt,value
2022-10-13T00:02:20.186Z,14.30
2022-10-13T00:04:47.493Z,13.23
2022-10-13T00:07:14.381Z,14.10
2022-10-13T00:09:41.498Z,14.00
2022-10-13T00:12:08.393Z,14.67
2022-10-13T00:14:35.466Z,13.07
2022-10-13T00:17:02.403Z,13.70
2022-10-13T00:19:31.684Z,13.17
2022-10-13T00:21:58.652Z,13.47
2022-10-13T00:24:25.651Z,14.10
2022-10-13T00:26:52.716Z,13.70
2022-10-13T00:29:19.764Z,13.60
2022-10-13T00:31:46.643Z,13.70
2022-10-13T00:34:13.657Z,14.77
2022-10-13T00:36:40.811Z,13.87
2022-10-13T00:39:08.359Z,14.17
2022-10-13T00:41:35.910Z,13.80
2022-10-13T00:44:04.226Z,13.97
2022-10-13T00:46:37.086Z,13.80
2022-10-13T00:49:09.905Z,13.67
2022-10-13T00:51:41.169Z,14.83
2022-10-13T00:54:11.492Z,14.40
2022-10-13T00:56:40.034Z,13.97
2022-10-13T00:59:23.629Z,14.07
2022-10-13T01:01:51.650Z,12.37
2022-10-13T01:04:23.021Z,12.83
2022-10-13T01:06:50.275Z,14.10
2022-10-13T01:09:17.426Z,14.33
2022-10-13T01:12:11.769Z,14.40
2022-10-13T01:15:01.460Z,14.33
2022-10-13T01:18:07.142Z,14.57
2022-10-13T01:20:53.386Z,14.20
2022-10-13T01:23:41.709Z,14.10
2022-10-13T01:26:43.002Z,14.30
2022-10-13T01:29:21.663Z,13.07
2022-10-13T01:31:55.610Z,12.57
2022-10-13T01:34:31.431Z,14.03
2022-10-13T01:37:25.954Z,12.80
2022-10-13T01:40:14.553Z,13.00
2022-10-13T01:43:31.411Z,13.50
2022-10-13T01:46:11.100Z,14.13
2022-10-13T01:48:40.529Z,14.03
2022-10-13T01:51:12.462Z,15.53
2022-10-13T01:53:40.151Z,15.07
2022-10-13T01:56:08.310Z,15.10
2022-10-13T01:58:38.456Z,15.17
2022-10-13T02:01:27.218Z,14.50
2022-10-13T02:04:18.962Z,15.20
2022-10-13T02:07:14.620Z,16.00
2022-10-13T02:10:05.991Z,15.10
2022-10-13T02:12:47.335Z,14.57
2022-10-13T02:15:18.168Z,15.00
2022-10-13T02:17:45.267Z,15.23
2022-10-13T02:20:13.322Z,15.57
2022-10-13T02:22:47.989Z,15.63
2022-10-13T02:25:14.961Z,14.80
2022-10-13T02:27:42.327Z,15.73
2022-10-13T02:30:09.843Z,15.00
2022-10-13T02:32:37.239Z,15.57
2022-10-13T02:35:04.458Z,15.10
2022-10-13T02:37:31.408Z,15.40
2022-10-13T02:39:58.357Z,15.97
2022-10-13T02:42:25.282Z,17.27
2022-10-13T02:44:52.259Z,16.67
2022-10-13T02:47:19.273Z,15.67
2022-10-13T02:49:46.244Z,16.73
2022-10-13T02:52:13.333Z,17.47
2022-10-13T02:54:40.252Z,17.77
2022-10-13T02:57:07.275Z,18.27
2022-10-13T02:59:34.211Z,17.70
2022-10-13T03:02:01.288Z,20.07
2022-10-13T03:04:28.340Z,18.83
2022-10-13T03:06:55.545Z,18.10
2022-10-13T03:09:22.644Z,18.73
2022-10-13T03:11:49.542Z,18.63
2022-10-13T03:14:16.556Z,18.00
2022-10-13T03:16:43.660Z,16.58
2022-10-13T03:19:11.017Z,17.83
2022-10-13T03:21:39.269Z,17.67
2022-10-13T03:24:06.518Z,17.30
2022-10-13T03:26:34.060Z,17.60
2022-10-13T03:29:01.668Z,18.63
2022-10-13T03:31:29.049Z,19.00
2022-10-13T03:33:55.942Z,19.67
2022-10-13T03:36:23.042Z,22.03
2022-10-13T03:38:50.052Z,19.40
2022-10-13T03:41:18.796Z,20.73
2022-10-13T03:43:45.956Z,19.90
2022-10-13T03:46:14.241Z,21.20
2022-10-13T03:48:41.823Z,19.95
2022-10-13T03:51:12.097Z,21.77
2022-10-13T03:53:39.398Z,20.07
2022-10-13T03:56:07.974Z,22.10
2022-10-13T03:58:35.224Z,21.87
2022-10-13T04:01:06.111Z,23.10
2022-10-13T04:03:34.156Z,21.60
2022-10-13T04:06:02.831Z,21.90
2022-10-13T04:08:34.033Z,21.20
2022-10-13T04:11:06.071Z,19.53
2022-10-13T04:13:33.695Z,19.63
2022-10-13T04:16:05.542Z,20.13
2022-10-13T04:18:32.670Z,19.47
2022-10-13T04:21:00.072Z,21.17
2022-10-13T04:23:27.224Z,18.70
2022-10-13T04:25:54.196Z,19.53
2022-10-13T04:28:21.243Z,19.37
2022-10-13T04:30:49.563Z,18.57
2022-10-13T04:33:17.127Z,18.93
2022-10-13T04:35:44.070Z,20.30
2022-10-13T04:38:11.134Z,20.33
2022-10-13T04:40:38.428Z,20.33
2022-10-13T04:43:05.350Z,18.83
2022-10-13T04:45:32.414Z,20.50
2022-10-13T04:48:01.032Z,20.73
2022-10-13T04:50:28.106Z,20.33
2022-10-13T04:52:55.016Z,23.40
2022-10-13T04:55:21.954Z,21.23
2022-10-13T04:57:48.879Z,18.50
2022-10-13T05:00:16.141Z,19.80
2022-10-13T05:02:43.130Z,20.63
2022-10-13T05:05:10.434Z,21.07
2022-10-13T05:07:37.474Z,22.63
2022-10-13T05:10:04.853Z,22.73
2022-10-13T05:12:31.866Z,23.43
2022-10-13T05:14:59.078Z,23.27
2022-10-13T05:17:26.037Z,26.90
2022-10-13T05:19:53.207Z,23.10
2022-10-13T05:22:20.410Z,25.03
2022-10-13T05:24:47.584Z,23.13
2022-10-13T05:27:14.702Z,23.33
2022-10-13T05:29:41.670Z,21.77
2022-10-13T05:32:08.960Z,22.00
2022-10-13T05:34:35.920Z,23.13
2022-10-13T05:37:03.031Z,23.77
2022-10-13T05:39:29.913Z,22.48
2022-10-13T05:41:56.849Z,21.20
2022-10-13T05:44:24.744Z,22.03
2022-10-13T05:46:51.702Z,22.47
2022-10-13T05:49:18.662Z,21.63
2022-10-13T05:51:51.275Z,26.77
2022-10-13T05:54:33.773Z,28.35
2022-10-13T05:57:06.044Z,24.37
2022-10-13T05:59:40.124Z,22.48
2022-10-13T06:02:09.928Z,21.93
2022-10-13T06:04:42.963Z,22.25
2022-10-13T06:07:10.309Z,29.58
2022-10-13T06:09:38.792Z,22.38
2022-10-13T06:12:06.758Z,26.30
2022-10-13T06:14:34.091Z,21.38
2022-10-13T06:17:01.061Z,24.10
2022-10-13T06:19:28.110Z,21.38
2022-10-13T06:21:55.197Z,26.70
2022-10-13T06:24:22.081Z,23.67
2022-10-13T06:26:49.310Z,20.63
2022-10-13T06:29:16.302Z,22.60
2022-10-13T06:31:43.358Z,23.08
2022-10-13T06:34:10.346Z,21.80
2022-10-13T06:36:38.235Z,25.10
2022-10-13T06:39:05.152Z,25.83
2022-10-13T06:41:32.198Z,23.50
2022-10-13T06:43:59.097Z,22.52
2022-10-13T06:46:26.334Z,23.35
2022-10-13T06:48:53.286Z,22.20
2022-10-13T06:51:20.309Z,21.98
2022-10-13T06:53:47.226Z,26.67
2022-10-13T06:56:14.442Z,25.23
2022-10-13T06:58:41.352Z,23.93
2022-10-13T07:01:09.324Z,23.27
2022-10-13T07:03:36.364Z,23.55
2022-10-13T07:06:07.068Z,22.55
2022-10-13T07:08:35.214Z,22.77
2022-10-13T07:11:16.356Z,23.88
2022-10-13T07:13:46.600Z,23.65
2022-10-13T07:16:15.578Z,25.63
2022-10-13T07:18:42.621Z,25.48
2022-10-13T07:21:09.925Z,25.90
2022-10-13T07:23:37.060Z,26.25
2022-10-13T07:26:08.377Z,23.50
2022-10-13T07:28:35.431Z,25.55
2022-10-13T07:31:08.715Z,27.52
2022-10-13T07:33:35.754Z,28.48
2022-10-13T07:36:02.711Z,22.85
2022-10-13T07:38:29.770Z,24.85
2022-10-13T07:40:56.809Z,25.15
2022-10-13T07:43:23.704Z,24.38
2022-10-13T07:45:50.758Z,23.13
2022-10-13T07:48:17.762Z,24.38
2022-10-13T07:50:44.742Z,24.13
2022-10-13T07:53:11.720Z,24.23
2022-10-13T07:55:38.665Z,23.00
2022-10-13T07:58:05.922Z,24.25
2022-10-13T08:00:33.352Z,24.08
2022-10-13T08:03:00.233Z,24.85
2022-10-13T08:05:27.277Z,27.23
2022-10-13T08:07:56.072Z,24.63
2022-10-13T08:10:26.573Z,23.92
2022-10-13T08:12:53.485Z,23.67
2022-10-13T08:15:20.685Z,24.73
2022-10-13T08:17:48.350Z,23.70
2022-10-13T08:20:15.398Z,25.80
2022-10-13T08:22:42.302Z,30.95
2022-10-13T08:25:09.891Z,30.05
2022-10-13T08:27:50.742Z,28.42
2022-10-13T08:30:19.487Z,27.85
2022-10-13T08:32:46.518Z,25.40
2022-10-13T08:35:13.507Z,28.98
2022-10-13T08:37:40.413Z,27.90
2022-10-13T08:40:12.039Z,31.73
2022-10-13T08:42:42.956Z,31.95
2022-10-13T08:48:18.998Z,23.80
2022-10-13T08:50:51.766Z,22.40
2022-10-13T08:53:30.851Z,22.10
2022-10-13T08:56:09.008Z,23.75
2022-10-13T08:58:39.007Z,22.15
2022-10-13T09:01:19.907Z,21.55
2022-10-13T09:03:49.987Z,20.17
2022-10-13T09:06:27.862Z,19.85
2022-10-13T09:09:00.433Z,19.73
2022-10-13T09:11:34.177Z,18.95
2022-10-13T09:14:07.382Z,20.38
2022-10-13T09:16:38.378Z,19.90
2022-10-13T09:19:25.380Z,18.95
2022-10-13T09:21:57.861Z,19.92
2022-10-13T09:24:27.033Z,18.50
2022-10-13T09:27:07.621Z,16.55
2022-10-13T09:29:35.070Z,16.88
2022-10-13T09:32:21.315Z,17.08
2022-10-13T09:34:49.666Z,15.55
2022-10-13T09:37:25.746Z,16.80
2022-10-13T09:40:11.824Z,15.52
2022-10-13T09:42:39.384Z,14.95
2022-10-13T09:45:14.786Z,14.68
2022-10-13T09:47:49.647Z,15.38
2022-10-13T09:50:38.252Z,14.27
2022-10-13T09:53:35.816Z,14.57
2022-10-13T09:56:30.687Z,15.10
2022-10-13T09:58:57.656Z,15.48
2022-10-13T10:01:28.401Z,15.73
2022-10-13T10:03:57.336Z,13.48
2022-10-13T10:06:27.643Z,12.45
2022-10-13T10:09:23.911Z,11.90
2022-10-13T10:11:53.399Z,11.27
2022-10-13T10:14:36.002Z,10.90
2022-10-13T10:17:17.841Z,11.45
2022-10-13T10:20:06.220Z,10.85
2022-10-13T10:22:52.886Z,11.95
2022-10-13T10:26:05.374Z,11.07
2022-10-13T10:28:56.458Z,12.20
2022-10-13T10:31:35.488Z,11.73
2022-10-13T10:34:42.561Z,11.35
2022-10-13T10:37:22.838Z,11.18
2022-10-13T10:40:04.726Z,10.88
2022-10-13T10:43:13.882Z,10.65
2022-10-13T10:45:41.106Z,10.23
2022-10-13T10:48:24.265Z,10.70
2022-10-13T10:50:53.208Z,9.35
2022-10-13T10:53:46.456Z,10.98
2022-10-13T10:56:37.333Z,10.07
2022-10-13T10:59:17.370Z,10.65
2022-10-13T11:01:56.478Z,10.02
2022-10-13T11:04:45.733Z,9.75
2022-10-13T11:07:24.738Z,10.73
2022-10-13T11:09:51.617Z,10.43
2022-10-13T11:12:21.921Z,10.60
2022-10-13T11:14:55.972Z,9.85
2022-10-13T11:17:31.357Z,10.52
2022-10-13T11:19:59.042Z,9.63
2022-10-13T11:22:28.298Z,9.35
2022-10-13T11:24:59.821Z,10.38
2022-10-13T11:27:35.840Z,10.15
2022-10-13T11:30:04.189Z,9.52
2022-10-13T11:32:41.450Z,9.63
2022-10-13T11:35:08.442Z,11.05
2022-10-13T11:38:07.838Z,9.80
2022-10-13T11:40:56.325Z,10.80
2022-10-13T11:43:26.292Z,9.55
2022-10-13T11:46:14.566Z,10.48
2022-10-13T11:49:22.930Z,10.65
2022-10-13T11:52:07.671Z,10.70
2022-10-13T11:54:47.906Z,11.38
2022-10-13T11:57:22.502Z,12.05
2022-10-13T11:59:54.845Z,11.45
2022-10-13T12:02:24.213Z,12.30
2022-10-13T12:05:05.733Z,11.05
2022-10-13T12:07:36.454Z,12.27
2022-10-13T12:10:07.483Z,12.77
2022-10-13T12:12:34.443Z,12.27
2022-10-13T12:15:05.942Z,12.93
2022-10-13T12:17:39.056Z,12.40
2022-10-13T12:20:23.131Z,12.18
2022-10-13T12:22:54.432Z,12.77
2022-10-13T12:25:27.109Z,13.43
2022-10-13T12:27:57.952Z,12.80
2022-10-13T12:30:38.373Z,11.82
2022-10-13T12:33:23.832Z,14.38
2022-10-13T12:35:50.849Z,17.38
2022-10-13T12:38:23.134Z,15.05
2022-10-13T12:40:53.427Z,12.65
2022-10-13T12:43:25.310Z,12.02
2022-10-13T12:45:52.741Z,13.00
2022-10-13T12:48:35.270Z,13.48
2022-10-13T12:51:25.046Z,11.35
2022-10-13T12:53:52.111Z,12.32
2022-10-13T12:56:32.493Z,11.73
2022-10-13T12:59:00.322Z,10.23
2022-10-13T13:01:33.306Z,11.52
2022-10-13T13:04:22.526Z,10.32
2022-10-13T13:07:01.011Z,10.05
2022-10-13T13:09:36.956Z,9.93
2022-10-13T13:12:26.851Z,9.93
2022-10-13T13:14:55.166Z,13.35
2022-10-13T13:17:56.722Z,14.90
2022-10-13T13:20:28.875Z,15.88
2022-10-13T13:22:56.799Z,9.20
2022-10-13T13:25:24.338Z,9.20
2022-10-13T13:27:52.040Z,9.95
2022-10-13T13:30:21.772Z,9.73
2022-10-13T13:32:49.449Z,9.85
2022-10-13T13:35:17.233Z,10.32
2022-10-13T13:37:49.083Z,10.45
2022-10-13T13:40:21.113Z,9.55
2022-10-13T13:42:48.253Z,9.43
2022-10-13T13:45:17.133Z,10.48
2022-10-13T13:47:45.798Z,8.45
2022-10-13T13:50:20.511Z,10.10
2022-10-13T13:52:47.938Z,7.95
2022-10-13T13:55:15.444Z,9.05
2022-10-13T13:57:45.756Z,9.20
2022-10-13T14:00:14.512Z,8.30
2022-10-13T14:02:43.703Z,8.57
2022-10-13T14:05:11.458Z,8.55
2022-10-13T14:07:38.919Z,9.23
2022-10-13T14:10:07.655Z,10.35
2022-10-13T14:12:35.234Z,8.32
2022-10-13T14:15:02.344Z,9.18
2022-10-13T14:17:29.331Z,8.65
2022-10-13T14:19:56.321Z,8.48
2022-10-13T14:22:23.537Z,9.07
2022-10-13T14:24:51.026Z,9.88
2022-10-13T14:27:17.934Z,8.57
2022-10-13T14:29:45.044Z,11.30
2022-10-13T14:32:12.209Z,9.15
2022-10-13T14:34:39.097Z,19.25
2022-10-13T14:37:06.377Z,9.23
2022-10-13T14:39:33.311Z,9.10
2022-10-13T14:42:00.424Z,9.65
2022-10-13T14:44:27.607Z,8.95
2022-10-13T14:46:54.865Z,8.68
2022-10-13T14:49:21.771Z,10.45
2022-10-13T14:51:48.898Z,9.00
2022-10-13T14:54:15.798Z,9.95
2022-10-13T14:56:44.645Z,10.52
2022-10-13T14:59:12.312Z,9.63
2022-10-13T15:01:41.655Z,10.63
2022-10-13T15:04:08.773Z,9.80
2022-10-13T15:06:39.182Z,9.02
2022-10-13T15:11:39.068Z,9.32
2022-10-13T15:14:06.145Z,9.65
2022-10-13T15:16:33.805Z,8.63
2022-10-13T15:19:00.718Z,8.85
2022-10-13T15:21:27.777Z,9.85
2022-10-13T15:23:56.531Z,9.68
2022-10-13T15:26:23.580Z,9.25
2022-10-13T15:28:53.151Z,11.45
2022-10-13T15:31:21.495Z,9.98
2022-10-13T15:33:51.813Z,8.95
2022-10-13T15:36:20.520Z,8.77
2022-10-13T15:38:47.630Z,10.02
2022-10-13T15:41:14.810Z,9.75
2022-10-13T15:43:41.980Z,8.27
2022-10-13T15:46:12.768Z,15.05
2022-10-13T15:48:39.986Z,10.77
2022-10-13T15:51:15.215Z,9.20
2022-10-13T15:53:42.398Z,8.05
2022-10-13T15:56:09.677Z,8.65
2022-10-13T15:58:36.824Z,8.27
2022-10-13T16:01:13.558Z,9.15
2022-10-13T16:03:40.873Z,9.68
2022-10-13T16:06:10.370Z,8.77
2022-10-13T16:08:42.627Z,9.88
2022-10-13T16:11:14.758Z,10.10
2022-10-13T16:13:45.734Z,10.38
2022-10-13T16:16:12.715Z,13.45
2022-10-13T16:18:40.584Z,10.02
2022-10-13T16:21:23.231Z,12.05
2022-10-13T16:23:50.543Z,9.27
2022-10-13T16:26:17.829Z,11.88
2022-10-13T16:28:46.082Z,9.68
2022-10-13T16:31:16.269Z,9.98
2022-10-13T16:33:44.988Z,12.38
2022-10-13T16:36:17.260Z,10.68
2022-10-13T16:38:45.304Z,10.77
2022-10-13T16:41:15.256Z,10.52
2022-10-13T16:43:43.224Z,12.43
2022-10-13T16:46:13.493Z,12.63
2022-10-13T16:48:41.350Z,11.70
2022-10-13T16:51:12.006Z,13.27
2022-10-13T16:53:39.326Z,12.52
2022-10-13T16:56:08.098Z,11.50
2022-10-13T16:58:35.539Z,11.75
2022-10-13T17:01:11.153Z,12.75
2022-10-13T17:03:44.065Z,11.77
2022-10-13T17:06:12.577Z,13.38
2022-10-13T17:08:39.856Z,12.00
2022-10-13T17:11:07.509Z,13.60
2022-10-13T17:13:36.064Z,11.43
2022-10-13T17:16:03.673Z,11.90
2022-10-13T17:18:30.620Z,11.88
2022-10-13T17:21:03.299Z,11.55
2022-10-13T17:23:32.127Z,11.50
2022-10-13T17:26:04.469Z,10.60
2022-10-13T17:28:32.106Z,10.02
2022-10-13T17:30:59.953Z,10.65
2022-10-13T17:33:32.664Z,11.77
2022-10-13T17:36:01.803Z,12.05
2022-10-13T17:38:29.366Z,11.23
2022-10-13T17:41:01.126Z,12.32
2022-10-13T17:43:28.585Z,12.55
2022-10-13T17:46:07.439Z,12.35
2022-10-13T17:48:43.207Z,13.68
2022-10-13T17:51:12.920Z,15.30
2022-10-13T17:53:42.215Z,19.02
2022-10-13T17:56:13.522Z,14.88
2022-10-13T17:58:41.616Z,16.65
2022-10-13T18:01:13.687Z,15.18
2022-10-13T18:03:46.080Z,14.25
2022-10-13T18:06:14.241Z,15.20
2022-10-13T18:08:41.536Z,9.48
2022-10-13T18:11:11.786Z,13.00
2022-10-13T18:13:39.293Z,15.02
2022-10-13T18:16:18.738Z,15.95
2022-10-13T18:18:46.751Z,22.58
2022-10-13T18:21:15.668Z,8.63
2022-10-13T18:23:43.046Z,6.80
2022-10-13T18:26:18.728Z,7.63
2022-10-13T18:28:48.056Z,9.40
2022-10-13T18:31:20.853Z,8.43
2022-10-13T18:33:48.473Z,7.60
2022-10-13T18:36:26.241Z,8.70
2022-10-13T18:38:54.556Z,5.97
2022-10-13T18:41:24.029Z,8.38
2022-10-13T18:43:51.154Z,8.50
2022-10-13T18:46:19.372Z,8.10
2022-10-13T18:48:46.664Z,7.18
2022-10-13T18:51:15.651Z,6.75
2022-10-13T18:53:44.608Z,6.35
2022-10-13T18:56:15.641Z,5.90
2022-10-13T18:58:42.956Z,6.57
2022-10-13T19:01:12.816Z,7.55
2022-10-13T19:03:41.396Z,8.35
2022-10-13T19:06:10.473Z,6.70
2022-10-13T19:08:37.495Z,7.15
2022-10-13T19:11:16.025Z,7.05
2022-10-13T19:13:44.230Z,7.10
2022-10-13T19:16:13.575Z,7.03
2022-10-13T19:18:40.744Z,7.03
2022-10-13T19:21:07.989Z,8.18
2022-10-13T19:23:35.038Z,7.60
2022-10-13T19:26:14.778Z,7.50
2022-10-13T19:28:43.166Z,7.43
2022-10-13T19:31:15.021Z,8.93
2022-10-13T19:33:45.484Z,8.73
2022-10-13T19:36:30.442Z,8.07
2022-10-13T19:38:57.885Z,10.15
2022-10-13T19:41:25.528Z,8.02
2022-10-13T19:43:52.505Z,7.63
2022-10-13T19:46:19.604Z,8.45
2022-10-13T19:48:46.699Z,8.18
2022-10-13T19:51:14.286Z,8.00
2022-10-13T19:53:42.113Z,7.05
2022-10-13T19:56:09.525Z,8.40
2022-10-13T19:58:36.763Z,7.70
2022-10-13T20:01:06.865Z,6.93
2022-10-13T20:03:35.103Z,7.85
2022-10-13T20:06:06.670Z,7.50
2022-10-13T20:08:33.893Z,7.55
2022-10-13T20:11:06.284Z,7.25
2022-10-13T20:13:33.333Z,8.15
2022-10-13T20:16:06.259Z,7.80
2022-10-13T20:18:33.614Z,7.63
2022-10-13T20:21:09.259Z,8.38
2022-10-13T20:23:36.362Z,7.45
2022-10-13T20:26:09.028Z,8.65
2022-10-13T20:28:42.714Z,8.48
2022-10-13T20:31:12.887Z,7.60
2022-10-13T20:33:40.439Z,7.78
2022-10-13T20:36:11.255Z,8.10
2022-10-13T20:38:38.642Z,7.82
2022-10-13T20:41:20.593Z,7.32
2022-10-13T20:43:49.075Z,7.88
2022-10-13T20:46:17.529Z,7.20
2022-10-13T20:49:09.370Z,6.93
2022-10-13T20:51:32.026Z,6.68
2022-10-13T20:53:59.002Z,7.78
2022-10-13T20:56:27.309Z,7.40
2022-10-13T20:58:54.537Z,6.88
2022-10-13T21:01:23.988Z,6.90
2022-10-13T21:03:54.929Z,7.53
2022-10-13T21:06:23.313Z,7.68
2022-10-13T21:08:50.351Z,6.38
2022-10-13T21:11:19.067Z,6.28
2022-10-13T21:13:47.593Z,6.55
2022-10-13T21:16:19.718Z,6.43
2022-10-13T21:18:49.168Z,6.28
2022-10-13T21:21:22.349Z,6.70
2022-10-13T21:23:57.709Z,6.95
2022-10-13T21:26:26.373Z,6.80
2022-10-13T21:28:53.741Z,6.70
2022-10-13T21:31:22.876Z,6.35
2022-10-13T21:33:50.539Z,6.97
2022-10-13T21:36:22.693Z,7.00
2022-10-13T21:38:52.918Z,7.30
2022-10-13T21:41:20.427Z,7.20
2022-10-13T21:43:47.499Z,6.47
2022-10-13T21:46:15.876Z,5.85
2022-10-13T21:48:44.655Z,6.13
2022-10-13T21:51:13.392Z,5.88
2022-10-13T21:53:40.620Z,6.93
2022-10-13T21:56:09.043Z,7.47
2022-10-13T21:58:36.250Z,7.70
2022-10-13T22:01:07.623Z,8.18
2022-10-13T22:03:35.619Z,8.55
2022-10-13T22:06:07.562Z,8.48
2022-10-13T22:08:38.852Z,7.85
2022-10-13T22:11:07.673Z,7.63
2022-10-13T22:13:35.574Z,7.53
2022-10-13T22:16:06.396Z,8.18
2022-10-13T22:18:33.439Z,9.10
2022-10-13T22:21:02.425Z,8.15
2022-10-13T22:23:29.879Z,7.97
2022-10-13T22:25:57.465Z,7.97
2022-10-13T22:28:24.536Z,8.20
2022-10-13T22:30:52.715Z,8.20
2022-10-13T22:33:20.402Z,7.97
2022-10-13T22:35:47.581Z,8.07
2022-10-13T22:38:14.642Z,8.32
2022-10-13T22:40:42.066Z,7.22
2022-10-13T22:43:09.271Z,7.25
2022-10-13T22:45:36.319Z,8.30
2022-10-13T22:48:03.346Z,7.60
2022-10-13T22:50:30.346Z,8.00
2022-10-13T22:52:57.377Z,8.93
2022-10-13T22:55:24.354Z,8.55
2022-10-13T22:57:51.276Z,9.52
2022-10-13T23:00:18.508Z,8.35
2022-10-13T23:02:45.451Z,8.80
2022-10-13T23:05:12.398Z,8.65
2022-10-13T23:07:39.465Z,6.78
2022-10-13T23:10:06.918Z,7.80
2022-10-13T23:12:33.908Z,7.88
2022-10-13T23:15:00.973Z,8.27
2022-10-13T23:17:27.978Z,8.10
2022-10-13T23:19:54.983Z,7.18
2022-10-13T23:22:21.902Z,7.75
2022-10-13T23:24:48.915Z,7.60
2022-10-13T23:27:15.825Z,7.97
2022-10-13T23:29:42.886Z,8.23
2022-10-13T23:32:10.160Z,8.27
2022-10-13T23:34:37.360Z,9.20
2022-10-13T23:37:04.338Z,10.13
2022-10-13T23:39:31.610Z,10.52
2022-10-13T23:41:58.530Z,10.05
2022-10-13T23:44:25.551Z,9.73
2022-10-13T23:46:52.501Z,11.57
2022-10-13T23:49:19.597Z,12.27
2022-10-13T23:51:46.548Z,14.27
2022-10-13T23:54:13.524Z,12.77
2022-10-13T23:56:40.546Z,13.63
2022-10-13T23:59:07.633Z,13.85
